MVJ weather

CLOSED Marlboro Airport
Mandeville, Manchester, Jamaica

Public forecast

Using degrees Celsius for public forecast. Weather courtesy of forecast.io.

Closest aviation weather report (METAR) to Marlboro Airport

Closest report is Sangster International Airport, 37.6 nm (69.7 km) NW. Retrieved 2019/10/24 02:00 UTC (59 minutes ago):

MKJS 240200Z VRB01KT 9999 FEW022 27/24 Q1013

Closest aviation forecast (TAF) to Marlboro Airport

Closest forecast is Sangster International Airport, 37.6 nm (69.7 km) NW. Retrieved 2019-10-24 00:25 UTC (3 hours ago):

TAF MKJS 232315Z 2400/2424 13005KT 9999 FEW020 FEW022CB BECMG 2414/2416 07015KT TEMPO 2417/2423 6000 TSRA SCT018 SCT020CB